createdAt,value
2018-03-01T00:00:35.334Z,57.40
2018-03-01T00:03:03.618Z,58.73
2018-03-01T00:05:31.890Z,44.37
2018-03-01T00:08:00.186Z,49.37
2018-03-01T00:10:27.747Z,56.83
2018-03-01T00:12:55.306Z,56.63
2018-03-01T00:15:22.818Z,64.50
2018-03-01T00:17:50.418Z,59.17
2018-03-01T00:20:17.974Z,56.00
2018-03-01T00:22:45.533Z,55.93
2018-03-01T00:25:13.042Z,62.50
2018-03-01T00:27:40.566Z,64.53
2018-03-01T00:30:08.075Z,56.17
2018-03-01T00:32:35.670Z,48.90
2018-03-01T00:35:03.182Z,63.60
2018-03-01T00:37:30.709Z,58.87
2018-03-01T00:39:58.218Z,61.07
2018-03-01T00:42:26.510Z,57.57
2018-03-01T00:44:54.785Z,57.00
2018-03-01T00:47:23.175Z,59.03
2018-03-01T00:49:50.690Z,61.67
2018-03-01T00:52:18.217Z,69.50
2018-03-01T00:54:45.738Z,50.97
2018-03-01T00:57:14.021Z,62.83
2018-03-01T00:59:41.543Z,52.27
2018-03-01T01:02:09.052Z,68.77
2018-03-01T01:04:36.602Z,68.40
2018-03-01T01:07:04.111Z,56.83
2018-03-01T01:09:31.639Z,60.47
2018-03-01T01:11:59.146Z,59.90
2018-03-01T01:14:31.342Z,55.47
2018-03-01T01:16:58.858Z,59.10
2018-03-01T01:19:26.460Z,67.30
2018-03-01T01:21:53.971Z,57.73
2018-03-01T01:24:21.594Z,62.40
2018-03-01T01:26:49.118Z,49.13
2018-03-01T01:29:17.514Z,65.40
2018-03-01T01:31:45.078Z,62.33
2018-03-01T01:34:12.602Z,51.90
2018-03-01T01:36:40.202Z,61.40
2018-03-01T01:39:07.751Z,76.43
2018-03-01T01:41:35.268Z,57.33
2018-03-01T01:44:02.793Z,59.23
2018-03-01T01:46:30.322Z,46.00
2018-03-01T01:48:57.853Z,72.97
2018-03-01T01:51:26.142Z,55.03
2018-03-01T01:53:54.539Z,58.33
2018-03-01T01:56:22.050Z,47.70
2018-03-01T01:58:49.659Z,65.23
2018-03-01T02:01:17.170Z,71.03
2018-03-01T02:03:44.779Z,69.23
2018-03-01T02:06:12.292Z,54.97
2018-03-01T02:08:39.820Z,65.00
2018-03-01T02:11:07.328Z,57.03
2018-03-01T02:13:35.627Z,54.23
2018-03-01T02:16:03.148Z,65.83
2018-03-01T02:18:30.752Z,61.37
2018-03-01T02:20:58.270Z,55.50
2018-03-01T02:23:25.869Z,72.47
2018-03-01T02:25:53.378Z,55.73
2018-03-01T02:28:20.887Z,60.30
2018-03-01T02:30:48.415Z,66.17
2018-03-01T02:33:16.699Z,76.57
2018-03-01T02:35:45.002Z,89.47
2018-03-01T02:38:12.514Z,50.77
2018-03-01T02:40:40.039Z,61.93
2018-03-01T02:43:07.563Z,71.23
2018-03-01T02:45:35.096Z,59.20
2018-03-01T02:48:03.388Z,70.27
2018-03-01T02:50:31.685Z,70.20
2018-03-01T02:52:59.207Z,66.13
2018-03-01T02:55:27.503Z,58.97
2018-03-01T02:57:55.020Z,69.20
2018-03-01T03:00:22.636Z,59.20
2018-03-01T03:02:50.186Z,76.03
2018-03-01T03:05:17.757Z,68.77
2018-03-01T03:07:45.270Z,51.33
2018-03-01T03:10:12.798Z,68.00
2018-03-01T03:12:40.306Z,54.70
2018-03-01T03:15:08.663Z,59.00
2018-03-01T03:17:36.170Z,73.20
2018-03-01T03:20:03.699Z,68.20
2018-03-01T03:22:32.002Z,69.10
2018-03-01T03:24:59.527Z,83.80
2018-03-01T03:27:27.834Z,56.30
2018-03-01T03:29:55.368Z,64.37
2018-03-01T03:32:23.642Z,74.97
2018-03-01T03:34:51.939Z,54.07
2018-03-01T03:37:19.499Z,61.87
2018-03-01T03:39:47.035Z,61.40
2018-03-01T03:42:15.336Z,69.20
2018-03-01T03:44:42.868Z,71.50
2018-03-01T03:47:11.166Z,81.80
2018-03-01T03:49:38.690Z,64.10
2018-03-01T03:52:06.979Z,43.73
2018-03-01T03:54:35.374Z,68.57
2018-03-01T03:57:02.889Z,62.97
2018-03-01T03:59:30.500Z,72.83
2018-03-01T04:01:58.010Z,56.60
2018-03-01T04:04:25.543Z,68.10
2018-03-01T04:06:53.074Z,65.40
2018-03-01T04:09:20.602Z,71.77
2018-03-01T04:11:48.879Z,74.80
2018-03-01T04:14:17.171Z,77.57
2018-03-01T04:16:45.450Z,63.87
2018-03-01T04:19:12.974Z,67.87
2018-03-01T04:21:40.486Z,64.80
2018-03-01T04:24:08.010Z,65.70
2018-03-01T04:26:36.292Z,74.63
2018-03-01T04:29:04.599Z,81.33
2018-03-01T04:31:32.142Z,64.10
2018-03-01T04:33:59.651Z,79.47
2018-03-01T04:36:27.258Z,62.47
2018-03-01T04:38:54.770Z,88.13
2018-03-01T04:41:22.379Z,64.70
2018-03-01T04:43:49.886Z,67.83
2018-03-01T04:46:17.500Z,69.13
2018-03-01T04:48:45.015Z,74.10
2018-03-01T04:51:12.614Z,70.17
2018-03-01T04:53:40.126Z,58.57
2018-03-01T04:56:07.720Z,68.20
2018-03-01T04:58:35.991Z,73.30
2018-03-01T05:01:04.287Z,86.17
2018-03-01T05:03:31.799Z,84.90
2018-03-01T05:05:59.399Z,76.20
2018-03-01T05:08:26.962Z,77.20
2018-03-01T05:10:54.529Z,67.43
2018-03-01T05:13:22.038Z,71.93
2018-03-01T05:15:49.566Z,77.20
2018-03-01T05:18:17.070Z,82.60
2018-03-01T05:20:45.371Z,75.73
2018-03-01T05:23:12.887Z,70.00
2018-03-01T05:25:41.179Z,70.50
2018-03-01T05:28:09.457Z,76.10
2018-03-01T05:30:37.758Z,80.60
2018-03-01T05:33:05.274Z,74.83
2018-03-01T05:35:32.804Z,84.83
2018-03-01T05:38:00.340Z,95.03
2018-03-01T05:40:27.891Z,66.70
2018-03-01T05:42:55.406Z,89.27
2018-03-01T05:45:22.930Z,79.20
2018-03-01T05:47:50.438Z,76.57
2018-03-01T05:50:18.741Z,61.90
2018-03-01T05:52:46.254Z,66.87
2018-03-01T05:55:13.783Z,65.40
2018-03-01T05:57:41.314Z,69.40
2018-03-01T06:00:08.852Z,86.30
2018-03-01T06:02:37.203Z,54.00
2018-03-01T06:05:04.695Z,59.27
2018-03-01T06:07:32.968Z,75.20
2018-03-01T06:10:01.267Z,64.87
2018-03-01T06:12:28.787Z,82.60
2018-03-01T06:14:56.311Z,75.23
2018-03-01T06:17:23.833Z,73.27
2018-03-01T06:19:51.363Z,67.80
2018-03-01T06:22:18.950Z,71.03
2018-03-01T06:24:46.478Z,75.03
2018-03-01T06:27:13.990Z,77.50
2018-03-01T06:29:41.523Z,75.70
2018-03-01T06:32:09.041Z,68.83
2018-03-01T06:34:36.561Z,76.20
2018-03-01T06:37:04.122Z,56.67
2018-03-01T06:39:31.615Z,76.93
2018-03-01T06:41:59.146Z,75.43
2018-03-01T06:44:26.690Z,75.00
2018-03-01T06:46:54.215Z,87.77
2018-03-01T06:49:22.514Z,68.73
2018-03-01T06:51:50.038Z,73.23
2018-03-01T06:54:17.636Z,76.47
2018-03-01T06:56:45.198Z,76.87
2018-03-01T06:59:12.703Z,68.30
2018-03-01T07:01:40.228Z,72.00
2018-03-01T07:04:07.734Z,69.77
2018-03-01T07:06:36.026Z,76.73
2018-03-01T07:09:04.323Z,88.00
2018-03-01T07:11:31.892Z,69.90
2018-03-01T07:13:59.443Z,71.07
2018-03-01T07:16:26.971Z,72.07
2018-03-01T07:18:55.251Z,68.33
2018-03-01T07:21:23.552Z,69.63
2018-03-01T07:23:51.063Z,76.33
2018-03-01T07:26:18.603Z,72.60
2018-03-01T07:28:46.114Z,70.07
2018-03-01T07:31:13.640Z,69.73
2018-03-01T07:33:41.146Z,73.33
2018-03-01T07:36:08.695Z,76.63
2018-03-01T07:38:36.212Z,80.73
2018-03-01T07:41:03.730Z,64.67
2018-03-01T07:43:31.243Z,75.30
2018-03-01T07:45:59.552Z,78.37
2018-03-01T07:48:27.067Z,78.10
2018-03-01T07:50:54.594Z,76.23
2018-03-01T07:53:22.111Z,82.60
2018-03-01T07:55:50.495Z,62.57
2018-03-01T07:58:18.011Z,64.53
2018-03-01T08:00:45.539Z,77.97
2018-03-01T08:03:13.050Z,67.17
2018-03-01T08:05:41.448Z,75.90
2018-03-01T08:08:08.961Z,83.37
2018-03-01T08:10:37.263Z,58.10
2018-03-01T08:13:05.544Z,70.10
2018-03-01T08:15:33.844Z,76.63
2018-03-01T08:18:01.372Z,63.10
2018-03-01T08:20:29.671Z,89.93
2018-03-01T08:22:57.180Z,72.43
2018-03-01T08:25:24.716Z,64.30
2018-03-01T08:27:52.226Z,75.37
2018-03-01T08:30:20.517Z,54.47
2018-03-01T08:32:48.026Z,81.77
2018-03-01T08:35:15.556Z,76.50
2018-03-01T08:37:43.087Z,73.57
2018-03-01T08:40:10.595Z,83.93
2018-03-01T08:42:38.128Z,72.33
2018-03-01T08:45:05.671Z,74.60
2018-03-01T08:47:33.194Z,79.63
2018-03-01T08:50:00.711Z,78.63
2018-03-01T08:52:28.239Z,79.80
2018-03-01T08:54:55.747Z,78.00
2018-03-01T08:57:23.356Z,53.27
2018-03-01T08:59:50.859Z,64.20
2018-03-01T09:02:18.379Z,65.63
2018-03-01T09:04:45.891Z,60.93
2018-03-01T09:07:13.418Z,72.83
2018-03-01T09:09:40.922Z,67.70
2018-03-01T09:12:09.219Z,83.30
2018-03-01T09:14:37.490Z,65.27
2018-03-01T09:17:06.041Z,80.17
2018-03-01T09:19:33.547Z,69.27
2018-03-01T09:22:01.078Z,59.90
2018-03-01T09:24:29.375Z,63.47
2018-03-01T09:26:56.942Z,80.27
2018-03-01T09:29:24.503Z,71.33
2018-03-01T09:31:52.031Z,61.20
2018-03-01T09:34:20.302Z,69.57
2018-03-01T09:36:47.830Z,56.97
2018-03-01T09:39:15.351Z,75.40
2018-03-01T09:41:42.914Z,60.50
2018-03-01T09:44:10.422Z,81.13
2018-03-01T09:46:38.023Z,73.33
2018-03-01T09:49:05.531Z,69.73
2018-03-01T09:51:33.055Z,76.23
2018-03-01T09:54:00.562Z,85.30
2018-03-01T09:56:28.078Z,73.80
2018-03-01T09:58:55.623Z,68.33
2018-03-01T10:01:23.138Z,73.40
2018-03-01T10:03:50.646Z,76.77
2018-03-01T10:06:18.190Z,66.13
2018-03-01T10:08:45.751Z,67.93
2018-03-01T10:11:13.310Z,73.50
2018-03-01T10:13:40.867Z,66.67
2018-03-01T10:16:08.388Z,74.93
2018-03-01T10:18:35.994Z,72.63
2018-03-01T10:21:03.542Z,69.87
2018-03-01T10:23:31.051Z,70.57
2018-03-01T10:25:58.571Z,71.97
2018-03-01T10:28:26.075Z,68.77
2018-03-01T10:30:53.599Z,60.73
2018-03-01T10:33:21.127Z,75.90
2018-03-01T10:35:48.635Z,76.33
2018-03-01T10:38:16.163Z,82.73
2018-03-01T10:40:43.672Z,64.73
2018-03-01T10:43:11.196Z,73.00
2018-03-01T10:45:38.723Z,64.90
2018-03-01T10:48:06.336Z,70.63
2018-03-01T10:50:33.815Z,83.63
2018-03-01T10:53:02.099Z,70.17
2018-03-01T10:55:30.368Z,67.37
2018-03-01T10:57:58.658Z,79.37
2018-03-01T11:00:32.703Z,66.13
2018-03-01T11:03:00.232Z,70.47
2018-03-01T11:05:27.808Z,70.23
2018-03-01T11:07:55.339Z,72.93
2018-03-01T11:10:23.616Z,71.63
2018-03-01T11:12:51.907Z,71.47
2018-03-01T11:15:19.406Z,76.33
2018-03-01T11:17:46.930Z,67.90
2018-03-01T11:20:14.443Z,81.23
2018-03-01T11:22:41.963Z,73.70
2018-03-01T11:25:09.474Z,57.40
2018-03-01T11:27:37.763Z,78.50
2018-03-01T11:30:06.063Z,84.60
2018-03-01T11:32:33.586Z,68.13
2018-03-01T11:35:01.920Z,86.73
2018-03-01T11:37:29.418Z,61.30
2018-03-01T11:39:57.694Z,74.07
2018-03-01T11:42:25.984Z,79.73
2018-03-01T11:44:54.254Z,74.90
2018-03-01T11:47:22.547Z,65.03
2018-03-01T11:49:50.111Z,73.60
2018-03-01T11:52:17.636Z,70.13
2018-03-01T11:54:45.147Z,69.67
2018-03-01T11:57:12.671Z,66.77
2018-03-01T11:59:40.939Z,65.63
2018-03-01T12:02:09.230Z,71.93
2018-03-01T12:04:36.795Z,74.50
2018-03-01T12:07:04.324Z,70.60
2018-03-01T12:09:32.596Z,86.30
2018-03-01T12:12:00.886Z,74.17
2018-03-01T12:14:29.159Z,58.50
2018-03-01T12:16:57.448Z,65.57
2018-03-01T12:19:25.031Z,64.37
2018-03-01T12:21:52.559Z,76.10
2018-03-01T12:24:20.832Z,61.57
2018-03-01T12:26:49.139Z,66.00
2018-03-01T12:29:16.690Z,73.73
2018-03-01T12:31:44.220Z,70.63
2018-03-01T12:34:12.495Z,73.67
2018-03-01T12:36:40.796Z,74.63
2018-03-01T12:39:08.361Z,76.87
2018-03-01T12:41:35.927Z,88.00
2018-03-01T12:44:03.453Z,72.60
2018-03-01T12:46:30.979Z,71.57
2018-03-01T12:48:58.507Z,77.47
2018-03-01T12:51:26.017Z,66.13
2018-03-01T12:53:54.310Z,68.90
2018-03-01T12:56:22.583Z,74.23
2018-03-01T12:58:50.879Z,67.03
2018-03-01T13:01:18.387Z,51.20
2018-03-01T13:03:45.918Z,66.47
2018-03-01T13:06:13.428Z,70.77
2018-03-01T13:08:41.719Z,64.93
2018-03-01T13:11:09.232Z,75.80
2018-03-01T13:13:36.754Z,71.47
2018-03-01T13:16:04.263Z,70.50
2018-03-01T13:18:31.795Z,66.47
2018-03-01T13:20:59.308Z,67.40
2018-03-01T13:23:26.838Z,73.83
2018-03-01T13:25:54.348Z,72.37
2018-03-01T13:28:21.870Z,73.13
2018-03-01T13:30:51.078Z,77.50
2018-03-01T13:33:19.086Z,49.20
2018-03-01T13:38:39.367Z,58.47
2018-03-01T13:41:06.882Z,61.53
2018-03-01T13:43:35.855Z,84.20
2018-03-01T13:46:13.278Z,70.43
2018-03-01T13:48:41.567Z,72.07
2018-03-01T13:51:09.078Z,67.03
2018-03-01T13:53:36.599Z,69.87
2018-03-01T13:56:04.103Z,72.63
2018-03-01T13:58:33.156Z,76.63
2018-03-01T14:01:00.659Z,69.70
2018-03-01T14:03:28.187Z,64.20
2018-03-01T14:08:58.167Z,67.43
2018-03-01T14:11:25.679Z,79.60
2018-03-01T14:13:53.198Z,66.37
2018-03-01T14:16:21.478Z,80.10
2018-03-01T14:18:54.840Z,85.37
2018-03-01T14:21:28.088Z,65.30
2018-03-01T14:24:01.287Z,62.07
2018-03-01T14:26:33.306Z,69.73
2018-03-01T14:32:04.792Z,61.03
2018-03-01T14:34:33.085Z,66.90
2018-03-01T14:37:00.590Z,79.03
2018-03-01T14:39:28.111Z,71.63
2018-03-01T14:41:55.623Z,75.10
2018-03-01T14:44:23.151Z,77.63
2018-03-01T14:46:50.659Z,71.70
2018-03-01T14:49:18.947Z,66.83
2018-03-01T14:51:46.454Z,74.47
2018-03-01T14:54:13.967Z,74.50
2018-03-01T14:56:41.495Z,73.87
2018-03-01T14:59:09.771Z,68.80
2018-03-01T15:01:38.054Z,80.93
2018-03-01T15:04:06.326Z,71.83
2018-03-01T15:06:34.614Z,73.77
2018-03-01T15:09:02.122Z,73.60
2018-03-01T15:11:29.648Z,75.57
2018-03-01T15:13:57.204Z,77.83
2018-03-01T15:16:24.731Z,70.93
2018-03-01T15:18:53.002Z,70.47
2018-03-01T15:21:20.528Z,66.40
2018-03-01T15:23:48.043Z,80.32
2018-03-01T15:26:15.616Z,82.87
2018-03-01T15:28:43.118Z,71.40
2018-03-01T15:31:10.639Z,74.33
2018-03-01T15:33:38.188Z,63.73
2018-03-01T15:36:05.756Z,78.10
2018-03-01T15:38:33.268Z,80.50
2018-03-01T15:41:00.795Z,79.57
2018-03-01T15:43:28.308Z,65.10
2018-03-01T15:45:56.595Z,69.53
2018-03-01T15:48:24.128Z,65.63
2018-03-01T15:50:52.432Z,68.17
2018-03-01T15:53:19.944Z,68.53
2018-03-01T15:55:47.476Z,73.30
2018-03-01T15:58:15.013Z,73.50
2018-03-01T16:00:42.570Z,69.27
2018-03-01T16:03:10.132Z,73.33
2018-03-01T16:05:37.723Z,68.53
2018-03-01T16:08:05.179Z,67.40
2018-03-01T16:10:32.707Z,59.23
2018-03-01T16:13:00.211Z,70.43
2018-03-01T16:15:27.744Z,67.57
2018-03-01T16:17:55.250Z,70.67
2018-03-01T16:20:23.542Z,65.40
2018-03-01T16:22:51.051Z,84.33
2018-03-01T16:25:18.576Z,74.50
2018-03-01T16:27:46.086Z,76.33
2018-03-01T16:30:15.115Z,76.93
2018-03-01T16:32:42.618Z,75.77
2018-03-01T16:35:10.140Z,68.03
2018-03-01T16:37:37.651Z,79.93
2018-03-01T16:40:05.256Z,81.20
2018-03-01T16:42:32.806Z,65.30
2018-03-01T16:45:00.338Z,77.63
2018-03-01T16:47:28.625Z,80.87
2018-03-01T16:49:56.934Z,76.70
2018-03-01T16:52:24.447Z,65.83
2018-03-01T16:54:52.879Z,78.03
2018-03-01T16:57:20.430Z,84.20
2018-03-01T16:59:47.948Z,73.67
2018-03-01T17:02:16.241Z,78.67
2018-03-01T17:04:43.756Z,75.07
2018-03-01T17:07:11.376Z,81.83
2018-03-01T17:09:38.899Z,63.73
2018-03-01T17:12:07.215Z,75.43
2018-03-01T17:14:34.744Z,79.50
2018-03-01T17:17:03.044Z,80.40
2018-03-01T17:19:30.599Z,79.63
2018-03-01T17:21:58.138Z,81.80
2018-03-01T17:24:26.528Z,75.10
2018-03-01T17:26:54.059Z,90.63
2018-03-01T17:29:21.571Z,86.93
2018-03-01T17:31:49.116Z,83.23
2018-03-01T17:34:16.628Z,80.57
2018-03-01T17:36:44.155Z,73.97
2018-03-01T17:39:11.683Z,96.13
2018-03-01T17:41:39.253Z,81.60
2018-03-01T17:44:06.755Z,85.60
2018-03-01T17:46:34.274Z,84.07
2018-03-01T17:49:01.787Z,78.87
2018-03-01T17:51:30.070Z,58.90
2018-03-01T17:53:58.353Z,91.43
2018-03-01T17:56:26.754Z,95.93
2018-03-01T17:58:54.278Z,83.87
2018-03-01T18:01:22.547Z,82.50
2018-03-01T18:03:50.071Z,74.67
2018-03-01T18:06:17.574Z,87.00
2018-03-01T18:08:45.898Z,76.60
2018-03-01T18:11:13.407Z,79.80
2018-03-01T18:13:41.706Z,77.23
2018-03-01T18:16:09.228Z,89.93
2018-03-01T18:18:36.756Z,79.17
2018-03-01T18:21:04.272Z,92.10
2018-03-01T18:23:32.563Z,92.30
2018-03-01T18:26:00.077Z,102.13
2018-03-01T18:28:27.607Z,86.23
2018-03-01T18:30:55.114Z,77.40
2018-03-01T18:33:23.402Z,101.97
2018-03-01T18:35:50.911Z,94.97
2018-03-01T18:38:18.442Z,97.43
2018-03-01T18:40:45.945Z,91.40
2018-03-01T18:43:13.516Z,95.73
2018-03-01T18:45:41.003Z,96.50
2018-03-01T18:48:08.531Z,88.50
2018-03-01T18:50:36.835Z,82.10
2018-03-01T18:53:04.363Z,97.27
2018-03-01T18:55:31.875Z,86.13
2018-03-01T18:57:59.406Z,93.10
2018-03-01T19:00:26.972Z,90.47
2018-03-01T19:02:54.484Z,86.90
2018-03-01T19:05:22.089Z,93.40
2018-03-01T19:07:49.594Z,78.63
2018-03-01T19:10:17.110Z,88.10
2018-03-01T19:12:44.611Z,87.20
2018-03-01T19:15:12.136Z,87.67
2018-03-01T19:17:39.680Z,89.30
2018-03-01T19:20:07.273Z,86.37
2018-03-01T19:22:34.899Z,98.63
2018-03-01T19:25:02.435Z,91.80
2018-03-01T19:27:30.707Z,95.63
2018-03-01T19:29:59.011Z,95.07
2018-03-01T19:32:26.519Z,85.37
2018-03-01T19:34:54.049Z,94.40
2018-03-01T19:37:21.583Z,102.13
2018-03-01T19:39:49.107Z,103.93
2018-03-01T19:42:16.615Z,93.23
2018-03-01T19:44:44.134Z,83.53
2018-03-01T19:47:12.406Z,86.17
2018-03-01T19:49:40.698Z,105.93
2018-03-01T19:52:08.996Z,98.50
2018-03-01T19:54:36.548Z,93.67
2018-03-01T19:57:04.059Z,96.90
2018-03-01T19:59:31.574Z,96.37
2018-03-01T20:01:59.107Z,103.90
2018-03-01T20:04:27.378Z,94.67
2018-03-01T20:06:55.671Z,87.27
2018-03-01T20:09:23.230Z,94.63
2018-03-01T20:11:50.795Z,85.70
2018-03-01T20:14:18.315Z,103.23
2018-03-01T20:16:45.843Z,96.93
2018-03-01T20:19:13.352Z,99.33
2018-03-01T20:21:41.649Z,96.53
2018-03-01T20:24:09.180Z,101.80
2018-03-01T20:26:37.479Z,107.87
2018-03-01T20:29:05.009Z,94.63
2018-03-01T20:31:33.310Z,97.77
2018-03-01T20:34:00.845Z,85.57
2018-03-01T20:36:29.164Z,94.10
2018-03-01T20:38:56.687Z,101.30
2018-03-01T20:41:24.974Z,89.20
2018-03-01T20:43:52.492Z,97.87
2018-03-01T20:46:20.015Z,103.07
2018-03-01T20:48:47.546Z,100.33
2018-03-01T20:51:15.075Z,115.23
2018-03-01T20:53:42.582Z,103.47
2018-03-01T20:56:10.107Z,99.50
2018-03-01T20:58:38.382Z,110.20
2018-03-01T21:01:06.679Z,102.90
2018-03-01T21:03:34.183Z,92.47
2018-03-01T21:06:01.687Z,98.37
2018-03-01T21:08:30.078Z,105.70
2018-03-01T21:10:57.587Z,102.63
2018-03-01T21:13:25.200Z,101.80
2018-03-01T21:15:53.073Z,106.17
2018-03-01T21:18:20.597Z,99.67
2018-03-01T21:20:48.871Z,105.40
2018-03-01T21:23:17.163Z,109.90
2018-03-01T21:25:44.683Z,115.70
2018-03-01T21:28:12.215Z,103.33
2018-03-01T21:30:39.731Z,102.00
2018-03-01T21:33:08.028Z,121.80
2018-03-01T21:35:35.539Z,114.33
2018-03-01T21:38:03.148Z,99.23
2018-03-01T21:40:30.659Z,102.97
2018-03-01T21:42:58.188Z,113.10
2018-03-01T21:45:25.728Z,101.90
2018-03-01T21:47:53.263Z,124.60
2018-03-01T21:50:21.552Z,114.63
2018-03-01T21:52:49.089Z,113.07
2018-03-01T21:55:17.386Z,106.23
2018-03-01T21:57:44.946Z,117.73
2018-03-01T22:00:12.450Z,112.40
2018-03-01T22:02:39.975Z,114.57
2018-03-01T22:05:07.490Z,107.30
2018-03-01T22:07:35.800Z,104.97
2018-03-01T22:10:03.343Z,104.03
2018-03-01T22:12:31.631Z,104.37
2018-03-01T22:14:59.155Z,116.03
2018-03-01T22:17:26.695Z,109.77
2018-03-01T22:19:54.311Z,122.37
2018-03-01T22:22:21.818Z,119.63
2018-03-01T22:24:49.344Z,99.73
2018-03-01T22:27:16.992Z,121.90
2018-03-01T22:29:44.524Z,115.10
2018-03-01T22:32:12.799Z,133.43
2018-03-01T22:34:41.100Z,119.67
2018-03-01T22:37:08.611Z,126.33
2018-03-01T22:39:36.154Z,127.00
2018-03-01T22:42:03.674Z,114.10
2018-03-01T22:44:31.212Z,105.93
2018-03-01T22:46:59.486Z,120.17
2018-03-01T22:49:27.887Z,110.43
2018-03-01T22:51:55.420Z,114.00
2018-03-01T22:54:23.719Z,128.57
2018-03-01T22:56:51.278Z,116.10
2018-03-01T22:59:18.839Z,121.33
2018-03-01T23:01:46.347Z,108.57
2018-03-01T23:04:13.870Z,116.67
2018-03-01T23:06:41.388Z,109.87
2018-03-01T23:09:09.684Z,100.90
2018-03-01T23:11:37.257Z,107.87
2018-03-01T23:14:04.772Z,116.03
2018-03-01T23:16:32.295Z,113.23
2018-03-01T23:18:59.823Z,110.43
2018-03-01T23:21:27.379Z,115.40
2018-03-01T23:23:54.949Z,108.30
2018-03-01T23:26:22.478Z,128.23
2018-03-01T23:28:50.748Z,124.30
2018-03-01T23:31:19.044Z,102.73
2018-03-01T23:33:46.558Z,111.03
2018-03-01T23:36:14.086Z,119.57
2018-03-01T23:38:41.607Z,127.17
2018-03-01T23:41:09.894Z,113.87
2018-03-01T23:43:37.410Z,124.23
2018-03-01T23:46:04.935Z,120.03
2018-03-01T23:48:32.447Z,116.70
2018-03-01T23:51:00.746Z,134.03
2018-03-01T23:53:28.255Z,114.13
2018-03-01T23:55:55.780Z,132.03
2018-03-01T23:58:23.322Z,128.63
